createdAt,value
2022-12-14T00:01:49.627Z,30.97
2022-12-14T00:04:18.335Z,35.65
2022-12-14T00:06:46.873Z,34.10
2022-12-14T00:09:17.462Z,152.45
2022-12-14T00:11:46.299Z,44.10
2022-12-14T00:14:14.945Z,39.90
2022-12-14T00:16:43.560Z,50.83
2022-12-14T00:19:17.486Z,59.33
2022-12-14T00:21:49.175Z,50.64
2022-12-14T00:24:17.853Z,57.30
2022-12-14T00:26:46.340Z,51.28
2022-12-14T00:29:14.828Z,56.08
2022-12-14T00:31:43.411Z,32.15
2022-12-14T00:34:17.734Z,44.85
2022-12-14T00:36:46.542Z,60.08
2022-12-14T00:39:15.178Z,46.20
2022-12-14T00:41:44.072Z,165.55
2022-12-14T00:44:22.569Z,128.48
2022-12-14T00:46:51.233Z,45.15
2022-12-14T00:49:29.765Z,44.55
2022-12-14T00:51:58.206Z,45.80
2022-12-14T00:54:37.796Z,54.20
2022-12-14T00:57:12.473Z,49.05
2022-12-14T00:59:45.883Z,57.10
2022-12-14T01:02:24.176Z,102.20
2022-12-14T01:04:57.837Z,115.57
2022-12-14T01:07:26.846Z,110.78
2022-12-14T01:10:06.371Z,117.43
2022-12-14T01:12:45.098Z,125.05
2022-12-14T01:15:13.872Z,130.43
2022-12-14T01:17:52.952Z,86.35
2022-12-14T01:20:25.998Z,78.30
2022-12-14T01:22:56.094Z,88.25
2022-12-14T01:25:24.996Z,104.72
2022-12-14T01:27:53.610Z,107.65
2022-12-14T01:30:28.132Z,118.38
2022-12-14T01:33:06.669Z,82.47
2022-12-14T01:35:45.197Z,85.03
2022-12-14T01:38:19.210Z,101.90
2022-12-14T01:40:58.451Z,101.22
2022-12-14T01:43:48.834Z,96.35
2022-12-14T01:46:21.448Z,106.53
2022-12-14T01:48:52.489Z,97.80
2022-12-14T01:51:21.402Z,80.72
2022-12-14T01:53:49.994Z,80.25
2022-12-14T01:56:20.281Z,75.13
2022-12-14T01:58:49.055Z,80.78
2022-12-14T02:01:17.687Z,74.45
2022-12-14T02:03:52.241Z,97.18
2022-12-14T02:06:24.112Z,109.40
2022-12-14T02:08:53.962Z,165.05
2022-12-14T02:14:35.381Z,455.52
2022-12-14T02:17:04.094Z,334.10
2022-12-14T02:19:37.624Z,350.42
2022-12-14T02:22:12.551Z,297.20
2022-12-14T02:24:41.034Z,49.53
2022-12-14T02:30:26.573Z,52.15
2022-12-14T02:33:21.903Z,52.60
2022-12-14T02:36:13.961Z,44.47
2022-12-14T02:38:50.128Z,67.35
2022-12-14T02:41:30.248Z,62.28
2022-12-14T02:44:02.185Z,48.40
2022-12-14T02:46:47.336Z,54.30
2022-12-14T02:49:30.902Z,56.38
2022-12-14T02:52:13.246Z,46.55
2022-12-14T02:54:46.014Z,75.88
2022-12-14T02:57:30.365Z,59.25
2022-12-14T03:00:01.479Z,63.13
2022-12-14T03:02:35.550Z,116.18
2022-12-14T03:05:04.593Z,186.20
2022-12-14T03:07:33.244Z,303.13
2022-12-14T03:10:15.106Z,189.25
2022-12-14T03:12:45.728Z,238.93
2022-12-14T03:15:26.672Z,213.65
2022-12-14T03:17:58.545Z,247.80
2022-12-14T03:20:38.108Z,441.42
2022-12-14T03:23:13.845Z,392.45
2022-12-14T03:25:56.839Z,271.52
2022-12-14T03:28:31.300Z,229.85
2022-12-14T03:31:09.603Z,214.32
2022-12-14T03:33:39.327Z,282.75
2022-12-14T03:36:12.465Z,337.60
2022-12-14T03:38:43.036Z,309.00
2022-12-14T03:41:21.531Z,369.60
2022-12-14T03:43:58.221Z,340.20
2022-12-14T03:46:48.254Z,295.13
2022-12-14T03:49:29.538Z,553.83
2022-12-14T03:52:08.100Z,438.83
2022-12-14T03:54:50.166Z,462.30
2022-12-14T03:57:37.293Z,411.83
2022-12-14T04:00:08.183Z,347.92
2022-12-14T04:02:45.823Z,345.13
2022-12-14T04:05:27.153Z,572.85
2022-12-14T04:07:58.814Z,552.95
2022-12-14T04:10:48.344Z,478.42
2022-12-14T04:13:38.635Z,442.75
2022-12-14T04:16:26.436Z,422.27
2022-12-14T04:19:02.228Z,469.10
2022-12-14T04:25:12.716Z,315.60
2022-12-14T04:27:41.305Z,392.17
2022-12-14T04:30:11.045Z,386.63
2022-12-14T04:32:55.227Z,330.02
2022-12-14T04:35:41.258Z,334.15
2022-12-14T04:38:18.901Z,427.00
2022-12-14T04:40:52.358Z,419.67
2022-12-14T04:43:22.389Z,418.40
2022-12-14T04:45:53.136Z,405.20
2022-12-14T04:48:24.646Z,422.42
2022-12-14T04:51:05.673Z,333.42
2022-12-14T04:53:35.427Z,259.70
2022-12-14T04:56:25.871Z,150.23
2022-12-14T04:59:04.559Z,79.45
2022-12-14T05:01:42.372Z,72.18
2022-12-14T05:04:20.037Z,62.88
2022-12-14T05:06:54.539Z,82.97
2022-12-14T05:09:30.032Z,65.25
2022-12-14T05:12:20.794Z,87.35
2022-12-14T05:15:04.054Z,86.09
2022-12-14T05:17:42.883Z,67.85
2022-12-14T05:20:23.392Z,70.30
2022-12-14T05:22:57.259Z,66.35
2022-12-14T05:25:25.856Z,60.80
2022-12-14T05:27:55.086Z,63.78
2022-12-14T05:30:23.699Z,58.63
2022-12-14T05:32:53.103Z,65.85
2022-12-14T05:35:21.574Z,72.07
2022-12-14T05:37:50.070Z,75.45
2022-12-14T05:40:18.539Z,76.40
2022-12-14T05:42:49.806Z,87.70
2022-12-14T05:45:22.347Z,79.68
2022-12-14T05:47:50.882Z,82.03
2022-12-14T05:50:19.339Z,85.28
2022-12-14T05:52:47.781Z,76.10
2022-12-14T05:55:18.064Z,62.75
2022-12-14T05:57:56.551Z,72.60
2022-12-14T06:00:24.895Z,70.18
2022-12-14T06:02:55.834Z,74.13
2022-12-14T06:05:29.313Z,96.25
2022-12-14T06:07:57.709Z,68.95
2022-12-14T06:10:34.660Z,77.80
2022-12-14T06:13:08.535Z,71.00
2022-12-14T06:15:36.952Z,73.57
2022-12-14T06:18:05.518Z,69.72
2022-12-14T06:20:33.960Z,62.22
2022-12-14T06:23:02.321Z,63.63
2022-12-14T06:25:34.062Z,60.56
2022-12-14T06:28:02.459Z,61.72
2022-12-14T06:30:41.191Z,67.97
2022-12-14T06:33:09.556Z,69.25
2022-12-14T06:35:43.078Z,85.23
2022-12-14T06:38:11.927Z,80.70
2022-12-14T06:40:40.671Z,80.13
2022-12-14T06:43:14.435Z,65.15
2022-12-14T06:45:44.796Z,71.17
2022-12-14T06:48:18.209Z,72.07
2022-12-14T06:50:46.571Z,70.43
2022-12-14T06:53:15.173Z,66.90
2022-12-14T06:55:50.173Z,58.52
2022-12-14T06:58:18.557Z,76.43
2022-12-14T07:00:47.216Z,63.83
2022-12-14T07:03:15.736Z,73.47
2022-12-14T07:05:48.941Z,70.57
2022-12-14T07:08:17.630Z,81.43
2022-12-14T07:10:46.134Z,77.45
2022-12-14T07:13:14.624Z,89.53
2022-12-14T07:15:43.056Z,85.15
2022-12-14T07:18:11.629Z,97.75
2022-12-14T07:20:41.901Z,166.30
2022-12-14T07:23:10.341Z,93.05
2022-12-14T07:25:38.750Z,86.75
2022-12-14T07:28:07.265Z,81.03
2022-12-14T07:30:40.788Z,79.45
2022-12-14T07:33:10.651Z,68.38
2022-12-14T07:35:39.234Z,75.40
2022-12-14T07:38:07.767Z,76.95
2022-12-14T07:40:36.195Z,66.95
2022-12-14T07:43:05.011Z,60.10
2022-12-14T07:45:33.387Z,55.50
2022-12-14T07:48:01.799Z,66.35
2022-12-14T07:50:35.811Z,50.75
2022-12-14T07:53:04.264Z,57.03
2022-12-14T07:55:35.272Z,56.60
2022-12-14T07:58:03.713Z,55.97
2022-12-14T08:00:32.965Z,51.55
2022-12-14T08:03:01.632Z,52.58
2022-12-14T08:05:30.149Z,53.22
2022-12-14T08:07:58.694Z,47.22
2022-12-14T08:10:27.242Z,46.40
2022-12-14T08:13:04.003Z,49.75
2022-12-14T08:15:37.136Z,49.42
2022-12-14T08:18:05.606Z,49.20
2022-12-14T08:20:38.770Z,54.13
2022-12-14T08:23:12.399Z,59.05
2022-12-14T08:25:40.905Z,56.35
2022-12-14T08:28:19.254Z,53.80
2022-12-14T08:30:47.952Z,47.90
2022-12-14T08:33:16.443Z,51.83
2022-12-14T08:35:44.807Z,47.60
2022-12-14T08:38:22.675Z,49.10
2022-12-14T08:40:51.201Z,55.85
2022-12-14T08:43:30.129Z,57.50
2022-12-14T08:45:59.098Z,53.05
2022-12-14T08:48:27.937Z,57.63
2022-12-14T08:51:01.691Z,57.15
2022-12-14T08:53:30.674Z,58.42
2022-12-14T08:56:07.491Z,61.72
2022-12-14T08:58:41.876Z,57.40
2022-12-14T09:01:14.972Z,53.70
2022-12-14T09:03:47.397Z,54.80
2022-12-14T09:06:17.382Z,53.53
2022-12-14T09:08:47.177Z,52.20
2022-12-14T09:11:19.502Z,52.58
2022-12-14T09:13:48.219Z,58.03
2022-12-14T09:16:20.766Z,55.83
2022-12-14T09:18:54.652Z,52.03
2022-12-14T09:21:23.530Z,54.40
2022-12-14T09:23:58.929Z,58.00
2022-12-14T09:26:28.319Z,71.05
2022-12-14T09:28:58.370Z,65.05
2022-12-14T09:31:28.263Z,59.17
2022-12-14T09:33:58.646Z,60.60
2022-12-14T09:36:28.744Z,63.60
2022-12-14T09:38:59.197Z,61.28
2022-12-14T09:41:32.708Z,68.75
2022-12-14T09:44:17.876Z,63.60
2022-12-14T09:49:27.453Z,64.53
2022-12-14T09:51:58.168Z,73.32
2022-12-14T09:54:31.767Z,63.60
2022-12-14T09:57:19.327Z,57.28
2022-12-14T09:59:57.757Z,55.70
2022-12-14T10:02:33.767Z,53.75
2022-12-14T10:14:14.212Z,59.90
2022-12-14T10:17:09.368Z,48.53
2022-12-14T10:19:40.973Z,50.78
2022-12-14T10:22:18.271Z,42.90
2022-12-14T10:24:49.368Z,48.03
2022-12-14T10:27:34.186Z,44.15
2022-12-14T10:30:17.646Z,61.00
2022-12-14T10:32:53.156Z,54.90
2022-12-14T10:35:35.927Z,42.28
2022-12-14T10:38:04.347Z,75.50
2022-12-14T10:40:35.109Z,50.30
2022-12-14T10:43:12.863Z,50.88
2022-12-14T10:45:59.876Z,60.70
2022-12-14T10:48:32.063Z,57.17
2022-12-14T10:51:07.692Z,169.35
2022-12-14T10:53:57.676Z,53.95
2022-12-14T10:56:28.464Z,56.97
2022-12-14T10:59:15.459Z,57.38
2022-12-14T11:01:46.794Z,53.50
2022-12-14T11:07:22.919Z,62.35
2022-12-14T11:09:52.610Z,51.05
2022-12-14T11:12:26.202Z,47.70
2022-12-14T11:15:02.517Z,54.42
2022-12-14T11:17:32.169Z,62.53
2022-12-14T11:20:06.429Z,57.75
2022-12-14T11:22:50.174Z,47.33
2022-12-14T11:25:37.093Z,47.78
2022-12-14T11:28:36.023Z,54.25
2022-12-14T11:31:23.340Z,49.03
2022-12-14T11:33:52.992Z,54.42
2022-12-14T11:36:38.197Z,50.92
2022-12-14T11:39:19.173Z,50.80
2022-12-14T11:42:01.884Z,56.88
2022-12-14T11:44:36.487Z,55.88
2022-12-14T11:47:13.006Z,48.47
2022-12-14T11:49:41.484Z,51.65
2022-12-14T11:52:11.507Z,47.67
2022-12-14T11:54:50.247Z,68.22
2022-12-14T11:57:32.955Z,54.30
2022-12-14T12:00:06.879Z,55.42
2022-12-14T12:02:40.377Z,53.67
2022-12-14T12:05:12.156Z,46.95
2022-12-14T12:07:49.734Z,52.55
2022-12-14T12:10:25.202Z,59.05
2022-12-14T12:13:08.224Z,49.55
2022-12-14T12:15:38.149Z,58.70
2022-12-14T12:18:14.328Z,43.30
2022-12-14T12:20:51.410Z,53.08
2022-12-14T12:23:22.285Z,46.40
2022-12-14T12:25:52.400Z,69.20
2022-12-14T12:28:31.680Z,109.70
2022-12-14T12:31:10.967Z,91.97
2022-12-14T12:33:58.894Z,198.55
2022-12-14T12:36:27.644Z,414.08
2022-12-14T12:38:56.237Z,146.25
2022-12-14T12:41:25.995Z,307.20
2022-12-14T12:47:38.223Z,100.07
2022-12-14T12:50:10.397Z,66.95
2022-12-14T12:53:03.603Z,64.20
2022-12-14T12:55:37.841Z,115.40
2022-12-14T12:58:35.730Z,73.45
2022-12-14T13:01:17.317Z,54.42
2022-12-14T13:03:47.679Z,54.53
2022-12-14T13:06:19.100Z,64.13
2022-12-14T13:09:00.690Z,64.85
2022-12-14T13:11:35.720Z,57.38
2022-12-14T13:14:12.666Z,77.30
2022-12-14T13:16:42.628Z,81.85
2022-12-14T13:19:50.353Z,57.40
2022-12-14T13:22:30.881Z,83.80
2022-12-14T13:25:16.515Z,56.88
2022-12-14T13:28:02.209Z,64.53
2022-12-14T13:30:46.763Z,69.63
2022-12-14T13:33:40.155Z,65.70
2022-12-14T13:36:14.808Z,74.93
2022-12-14T13:38:46.415Z,84.57
2022-12-14T13:41:33.382Z,94.18
2022-12-14T13:44:06.998Z,97.65
2022-12-14T13:46:35.532Z,85.43
2022-12-14T13:49:21.710Z,77.55
2022-12-14T13:51:51.022Z,82.40
2022-12-14T13:54:21.817Z,84.70
2022-12-14T13:57:05.389Z,77.20
2022-12-14T13:59:36.192Z,73.03
2022-12-14T14:02:28.393Z,159.25
2022-12-14T14:05:16.068Z,91.10
2022-12-14T14:08:02.029Z,62.90
2022-12-14T14:10:40.011Z,44.83
2022-12-14T14:13:27.047Z,52.10
2022-12-14T14:16:27.409Z,65.63
2022-12-14T14:18:52.364Z,52.47
2022-12-14T14:21:20.752Z,59.50
2022-12-14T14:24:02.548Z,58.58
2022-12-14T14:26:32.178Z,49.25
2022-12-14T14:29:22.267Z,61.80
2022-12-14T14:31:52.313Z,45.15
2022-12-14T14:34:25.461Z,52.88
2022-12-14T14:37:23.232Z,53.35
2022-12-14T14:42:59.481Z,58.47
2022-12-14T14:45:42.905Z,70.53
2022-12-14T14:48:23.322Z,87.43
2022-12-14T14:51:03.720Z,82.80
2022-12-14T14:53:38.558Z,96.13
2022-12-14T14:56:12.737Z,152.48
2022-12-14T14:58:50.889Z,122.93
2022-12-14T15:01:19.932Z,157.25
2022-12-14T15:03:51.905Z,149.48
2022-12-14T15:06:25.577Z,143.98
2022-12-14T15:09:17.024Z,104.70
2022-12-14T15:11:48.739Z,106.90
2022-12-14T15:14:36.767Z,110.43
2022-12-14T15:17:24.783Z,100.03
2022-12-14T15:19:59.701Z,80.53
2022-12-14T15:22:30.955Z,79.28
2022-12-14T15:25:01.049Z,80.57
2022-12-14T15:27:31.486Z,93.80
2022-12-14T15:30:17.826Z,74.18
2022-12-14T15:32:52.095Z,67.45
2022-12-14T15:35:49.563Z,60.17
2022-12-14T15:38:26.568Z,63.03
2022-12-14T15:40:56.796Z,70.15
2022-12-14T15:43:26.417Z,65.53
2022-12-14T15:46:15.201Z,70.65
2022-12-14T15:48:55.199Z,73.22
2022-12-14T15:51:28.039Z,78.57
2022-12-14T15:53:56.804Z,172.40
2022-12-14T15:56:28.948Z,424.48
2022-12-14T15:59:03.680Z,144.00
2022-12-14T16:01:33.516Z,103.30
2022-12-14T16:04:14.005Z,68.22
2022-12-14T16:06:49.503Z,61.88
2022-12-14T16:12:01.400Z,79.72
2022-12-14T16:14:47.236Z,74.60
2022-12-14T16:20:47.784Z,66.63
2022-12-14T16:23:16.408Z,57.13
2022-12-14T16:26:01.504Z,50.97
2022-12-14T16:28:40.029Z,65.20
2022-12-14T16:31:18.894Z,63.55
2022-12-14T16:33:50.208Z,59.50
2022-12-14T16:36:18.850Z,65.60
2022-12-14T16:39:01.615Z,63.35
2022-12-14T16:41:37.450Z,68.65
2022-12-14T16:44:10.363Z,74.65
2022-12-14T16:46:38.767Z,69.07
2022-12-14T16:49:19.507Z,66.72
2022-12-14T16:52:07.401Z,63.50
2022-12-14T16:54:42.373Z,70.53
2022-12-14T16:57:22.129Z,68.13
2022-12-14T17:00:04.777Z,67.78
2022-12-14T17:02:40.397Z,71.53
2022-12-14T17:05:31.145Z,63.95
2022-12-14T17:07:59.519Z,58.15
2022-12-14T17:10:28.641Z,56.58
2022-12-14T17:13:06.197Z,56.05
2022-12-14T17:15:53.399Z,57.42
2022-12-14T17:18:38.034Z,61.70
2022-12-14T17:21:06.978Z,61.97
2022-12-14T17:23:37.411Z,49.00
2022-12-14T17:26:05.830Z,43.90
2022-12-14T17:28:35.137Z,52.80
2022-12-14T17:31:03.746Z,45.58
2022-12-14T17:33:37.263Z,48.63
2022-12-14T17:36:16.044Z,47.38
2022-12-14T17:38:44.608Z,56.65
2022-12-14T17:41:20.901Z,51.67
2022-12-14T17:43:55.247Z,46.05
2022-12-14T17:46:25.860Z,47.53
2022-12-14T17:48:54.396Z,50.88
2022-12-14T17:51:30.431Z,54.30
2022-12-14T17:53:59.366Z,48.58
2022-12-14T17:56:38.456Z,46.83
2022-12-14T17:59:06.951Z,42.15
2022-12-14T18:01:35.685Z,43.30
2022-12-14T18:04:04.465Z,43.08
2022-12-14T18:06:33.041Z,42.45
2022-12-14T18:09:01.439Z,42.53
2022-12-14T18:11:30.054Z,46.38
2022-12-14T18:13:59.973Z,48.75
2022-12-14T18:16:29.391Z,40.95
2022-12-14T18:18:58.498Z,50.10
2022-12-14T18:21:28.483Z,45.05
2022-12-14T18:23:57.466Z,44.83
2022-12-14T18:26:25.954Z,39.90
2022-12-14T18:28:54.986Z,36.58
2022-12-14T18:31:32.531Z,35.58
2022-12-14T18:34:01.020Z,36.40
2022-12-14T18:36:29.495Z,36.72
2022-12-14T18:39:03.033Z,38.08
2022-12-14T18:41:31.603Z,42.03
2022-12-14T18:44:01.211Z,44.88
2022-12-14T18:46:40.158Z,44.25
2022-12-14T18:49:08.727Z,40.72
2022-12-14T18:51:37.196Z,46.47
2022-12-14T18:54:15.544Z,48.70
2022-12-14T18:56:44.009Z,49.72
2022-12-14T18:59:22.527Z,46.03
2022-12-14T19:01:51.493Z,37.90
2022-12-14T19:04:25.268Z,41.83
2022-12-14T19:06:59.416Z,44.22
2022-12-14T19:09:38.062Z,47.17
2022-12-14T19:12:07.188Z,49.30
2022-12-14T19:14:35.529Z,47.53
2022-12-14T19:17:13.883Z,47.85
2022-12-14T19:19:44.582Z,41.20
2022-12-14T19:22:13.224Z,38.15
2022-12-14T19:24:52.146Z,38.42
2022-12-14T19:27:43.895Z,40.72
2022-12-14T19:30:12.382Z,38.70
2022-12-14T19:32:40.803Z,37.20
2022-12-14T19:35:09.777Z,39.67
2022-12-14T19:37:39.171Z,33.08
2022-12-14T19:40:13.527Z,34.47
2022-12-14T19:42:51.750Z,37.08
2022-12-14T19:45:20.223Z,33.42
2022-12-14T19:47:58.901Z,32.92
2022-12-14T19:50:37.362Z,30.23
2022-12-14T19:53:05.804Z,39.55
2022-12-14T19:55:35.511Z,34.47
2022-12-14T19:58:13.829Z,35.45
2022-12-14T20:00:47.398Z,34.20
2022-12-14T20:03:16.217Z,34.33
2022-12-14T20:05:55.598Z,30.88
2022-12-14T20:08:24.048Z,31.20
2022-12-14T20:10:55.249Z,30.52
2022-12-14T20:13:34.679Z,29.75
2022-12-14T20:16:03.412Z,34.22
2022-12-14T20:18:32.328Z,32.15
2022-12-14T20:21:05.305Z,33.63
2022-12-14T20:23:45.380Z,33.42
2022-12-14T20:26:20.853Z,28.77
2022-12-14T20:28:59.209Z,30.52
2022-12-14T20:31:37.669Z,37.72
2022-12-14T20:34:07.522Z,32.10
2022-12-14T20:36:45.956Z,28.05
2022-12-14T20:39:14.956Z,31.38
2022-12-14T20:41:43.389Z,29.85
2022-12-14T20:44:14.134Z,31.30
2022-12-14T20:46:45.072Z,36.90
2022-12-14T20:49:15.159Z,29.40
2022-12-14T20:51:49.332Z,32.83
2022-12-14T20:54:19.508Z,32.88
2022-12-14T20:56:49.230Z,31.45
2022-12-14T20:59:18.202Z,32.25
2022-12-14T21:01:51.855Z,31.92
2022-12-14T21:04:23.716Z,30.17
2022-12-14T21:06:56.917Z,27.17
2022-12-14T21:09:25.368Z,29.25
2022-12-14T21:12:12.137Z,34.35
2022-12-14T21:14:46.840Z,32.20
2022-12-14T21:17:16.469Z,32.42
2022-12-14T21:19:45.059Z,31.63
2022-12-14T21:22:14.866Z,34.70
2022-12-14T21:27:32.401Z,28.40
2022-12-14T21:30:01.058Z,27.80
2022-12-14T21:32:31.924Z,26.92
2022-12-14T21:35:10.918Z,32.95
2022-12-14T21:37:39.475Z,28.90
2022-12-14T21:40:08.926Z,28.77
2022-12-14T21:42:42.239Z,28.40
2022-12-14T21:45:11.568Z,26.65
2022-12-14T21:47:40.045Z,34.38
2022-12-14T21:50:08.760Z,27.48
2022-12-14T21:52:37.351Z,35.88
2022-12-14T21:55:06.125Z,27.35
2022-12-14T21:57:53.051Z,30.92
2022-12-14T22:00:22.081Z,27.35
2022-12-14T22:02:50.550Z,31.13
2022-12-14T22:05:19.059Z,25.52
2022-12-14T22:07:47.447Z,32.80
2022-12-14T22:10:19.929Z,25.48
2022-12-14T22:12:51.326Z,29.42
2022-12-14T22:15:19.756Z,33.58
2022-12-14T22:17:49.815Z,29.95
2022-12-14T22:20:18.283Z,35.42
2022-12-14T22:22:46.657Z,34.60
2022-12-14T22:25:15.886Z,25.43
2022-12-14T22:27:49.852Z,34.60
2022-12-14T22:30:18.838Z,29.17
2022-12-14T22:32:48.271Z,32.58
2022-12-14T22:35:16.725Z,28.00
2022-12-14T22:37:45.821Z,31.73
2022-12-14T22:40:14.617Z,28.85
2022-12-14T22:42:42.963Z,33.88
2022-12-14T22:45:16.599Z,29.72
2022-12-14T22:47:45.015Z,30.45
2022-12-14T22:50:13.478Z,32.65
2022-12-14T22:52:49.743Z,32.95
2022-12-14T22:55:21.896Z,35.94
2022-12-14T22:58:00.573Z,33.22
2022-12-14T23:00:29.004Z,30.52
2022-12-14T23:03:07.679Z,32.03
2022-12-14T23:05:37.295Z,31.48
2022-12-14T23:08:11.474Z,29.50
2022-12-14T23:11:08.496Z,29.08
2022-12-14T23:13:55.340Z,27.58
2022-12-14T23:16:42.497Z,27.40
2022-12-14T23:19:29.973Z,58.28
2022-12-14T23:22:22.645Z,47.63
2022-12-14T23:25:14.971Z,36.78
2022-12-14T23:28:02.021Z,32.00
2022-12-14T23:30:58.867Z,33.30
2022-12-14T23:33:50.871Z,50.03
2022-12-14T23:36:42.535Z,30.20
2022-12-14T23:39:29.545Z,30.02
2022-12-14T23:42:16.343Z,33.80
2022-12-14T23:45:03.675Z,33.33
2022-12-14T23:47:55.917Z,28.35
2022-12-14T23:50:44.971Z,26.08
2022-12-14T23:53:41.597Z,28.25
2022-12-14T23:56:33.264Z,22.90
2022-12-14T23:59:31.489Z,33.95
